createdAt,value
2022-08-05T00:00:49.976Z,18.01
2022-08-05T00:03:16.951Z,17.93
2022-08-05T00:06:06.701Z,17.83
2022-08-05T00:08:35.584Z,17.75
2022-08-05T00:11:20.265Z,17.72
2022-08-05T00:13:52.935Z,17.54
2022-08-05T00:16:35.631Z,17.55
2022-08-05T00:19:04.024Z,17.65
2022-08-05T00:21:30.829Z,17.63
2022-08-05T00:24:09.871Z,17.49
2022-08-05T00:26:38.530Z,17.55
2022-08-05T00:29:05.211Z,17.53
2022-08-05T00:31:53.962Z,17.52
2022-08-05T00:34:55.706Z,17.47
2022-08-05T00:37:11.459Z,17.42
2022-08-05T00:39:44.330Z,17.39
2022-08-05T00:42:36.628Z,17.36
2022-08-05T00:45:08.498Z,17.30
2022-08-05T00:47:53.434Z,17.32
2022-08-05T00:50:25.365Z,17.34
2022-08-05T00:52:53.349Z,17.27
2022-08-05T00:55:22.340Z,17.28
2022-08-05T00:57:58.690Z,17.12
2022-08-05T01:00:30.194Z,17.19
2022-08-05T01:02:59.807Z,17.21
2022-08-05T01:05:27.528Z,17.15
2022-08-05T01:08:42.834Z,16.98
2022-08-05T01:10:52.968Z,17.08
2022-08-05T01:13:57.577Z,17.07
2022-08-05T01:16:48.001Z,17.00
2022-08-05T01:19:56.561Z,17.03
2022-08-05T01:22:31.983Z,16.99
2022-08-05T01:25:39.959Z,16.95
2022-08-05T01:28:16.587Z,16.90
2022-08-05T01:30:59.227Z,16.80
2022-08-05T01:33:35.615Z,16.80
2022-08-05T01:36:13.080Z,16.58
2022-08-05T01:38:46.307Z,16.65
2022-08-05T01:41:18.196Z,16.68
2022-08-05T01:43:50.962Z,16.53
2022-08-05T01:46:42.791Z,16.60
2022-08-05T01:49:22.923Z,16.34
2022-08-05T01:51:54.785Z,16.56
2022-08-05T01:54:27.143Z,16.34
2022-08-05T01:58:13.190Z,16.48
2022-08-05T01:59:47.031Z,16.49
2022-08-05T02:02:15.927Z,16.47
2022-08-05T02:04:46.116Z,16.46
2022-08-05T02:07:21.918Z,16.37
2022-08-05T02:09:50.988Z,16.42
2022-08-05T02:12:29.738Z,16.42
2022-08-05T02:15:05.794Z,16.42
2022-08-05T02:18:31.686Z,16.39
2022-08-05T02:20:44.127Z,16.26
2022-08-05T02:23:14.960Z,16.34
2022-08-05T02:25:49.729Z,16.34
2022-08-05T02:28:29.074Z,16.33
2022-08-05T02:31:02.511Z,16.32
2022-08-05T02:33:36.104Z,16.15
2022-08-05T02:36:09.454Z,16.30
2022-08-05T02:38:37.920Z,16.25
2022-08-05T02:41:17.027Z,16.12
2022-08-05T02:44:06.504Z,16.14
2022-08-05T02:46:33.667Z,16.16
2022-08-05T02:49:01.849Z,16.16
2022-08-05T02:52:03.190Z,16.14
2022-08-05T02:54:34.782Z,15.99
2022-08-05T02:57:09.789Z,16.03
2022-08-05T02:59:50.288Z,15.76
2022-08-05T03:02:27.682Z,15.77
2022-08-05T03:04:57.405Z,16.03
2022-08-05T03:08:00.331Z,16.03
2022-08-05T03:10:16.012Z,15.92
2022-08-05T03:12:51.980Z,15.85
2022-08-05T03:15:20.055Z,15.77
2022-08-05T03:17:46.581Z,15.86
2022-08-05T03:20:13.390Z,15.90
2022-08-05T03:22:44.076Z,15.88
2022-08-05T03:25:32.742Z,15.67
2022-08-05T03:28:02.696Z,15.89
2022-08-05T03:30:34.163Z,15.88
2022-08-05T03:33:05.579Z,15.69
2022-08-05T03:35:33.759Z,15.61
2022-08-05T03:38:07.277Z,15.70
2022-08-05T03:40:34.435Z,15.81
2022-08-05T03:43:58.240Z,15.74
2022-08-05T03:45:58.099Z,15.72
2022-08-05T03:48:29.230Z,15.84
2022-08-05T03:52:38.147Z,15.82
2022-08-05T03:55:53.477Z,15.83
2022-08-05T03:57:41.356Z,15.75
2022-08-05T04:00:07.330Z,15.77
2022-08-05T04:02:38.166Z,15.60
2022-08-05T04:05:09.829Z,15.69
2022-08-05T04:07:57.706Z,15.72
2022-08-05T04:10:28.336Z,15.71
2022-08-05T04:12:59.229Z,15.68
2022-08-05T04:15:28.011Z,15.56
2022-08-05T04:18:03.969Z,15.64
2022-08-05T04:20:34.388Z,15.59
2022-08-05T04:23:01.600Z,15.69
2022-08-05T04:25:56.737Z,15.54
2022-08-05T04:28:15.020Z,15.56
2022-08-05T04:30:43.757Z,15.50
2022-08-05T04:33:10.318Z,15.56
2022-08-05T04:36:16.212Z,15.52
2022-08-05T04:38:39.498Z,15.46
2022-08-05T04:41:09.561Z,15.53
2022-08-05T04:43:37.779Z,15.50
2022-08-05T04:46:07.385Z,15.55
2022-08-05T04:48:34.130Z,15.46
2022-08-05T04:51:11.119Z,15.31
2022-08-05T04:53:39.046Z,15.38
2022-08-05T04:56:33.487Z,15.40
2022-08-05T04:58:56.018Z,15.44
2022-08-05T05:02:05.523Z,15.48
2022-08-05T05:04:10.129Z,15.49
2022-08-05T05:06:44.665Z,15.47
2022-08-05T05:09:17.556Z,15.31
2022-08-05T05:11:55.422Z,15.33
2022-08-05T05:14:27.776Z,15.43
2022-08-05T05:17:03.393Z,15.15
2022-08-05T05:19:37.157Z,15.31
2022-08-05T05:22:24.397Z,15.24
2022-08-05T05:24:56.957Z,15.22
2022-08-05T05:27:45.682Z,15.26
2022-08-05T05:30:15.560Z,15.25
2022-08-05T05:32:56.842Z,15.16
2022-08-05T05:35:27.017Z,15.10
2022-08-05T05:38:01.740Z,15.44
2022-08-05T05:40:32.035Z,15.83
2022-08-05T05:42:59.654Z,16.16
2022-08-05T05:45:28.826Z,16.27
2022-08-05T05:48:06.113Z,16.71
2022-08-05T05:50:44.003Z,17.01
2022-08-05T05:53:21.473Z,17.18
2022-08-05T05:55:52.126Z,17.35
2022-08-05T05:58:30.298Z,17.21
2022-08-05T06:01:02.108Z,17.13
2022-08-05T06:03:53.908Z,16.94
2022-08-05T06:06:28.085Z,16.93
2022-08-05T06:08:57.410Z,16.81
2022-08-05T06:11:24.027Z,16.59
2022-08-05T06:13:54.109Z,16.53
2022-08-05T06:16:29.028Z,16.60
2022-08-05T06:19:00.889Z,16.65
2022-08-05T06:21:36.523Z,16.57
2022-08-05T06:24:12.359Z,16.51
2022-08-05T06:26:52.185Z,16.52
2022-08-05T06:29:25.248Z,16.65
2022-08-05T06:32:25.609Z,16.77
2022-08-05T06:34:56.432Z,16.74
2022-08-05T06:37:56.788Z,16.86
2022-08-05T06:40:12.128Z,16.93
2022-08-05T06:42:39.916Z,16.85
2022-08-05T06:45:09.081Z,17.00
2022-08-05T06:48:37.078Z,17.20
2022-08-05T06:50:24.875Z,17.28
2022-08-05T06:52:58.428Z,17.21
2022-08-05T06:55:25.680Z,17.35
2022-08-05T06:57:57.327Z,17.31
2022-08-05T07:00:31.346Z,17.37
2022-08-05T07:02:57.931Z,17.44
2022-08-05T07:05:31.800Z,17.52
2022-08-05T07:08:03.823Z,17.59
2022-08-05T07:10:32.766Z,17.74
2022-08-05T07:13:18.179Z,17.85
2022-08-05T07:17:57.276Z,18.06
2022-08-05T07:19:09.721Z,18.06
2022-08-05T07:22:00.442Z,18.29
2022-08-05T07:24:23.252Z,18.42
2022-08-05T07:26:55.212Z,18.42
2022-08-05T07:30:21.923Z,18.69
2022-08-05T07:32:08.431Z,18.53
2022-08-05T07:34:37.216Z,18.75
2022-08-05T07:37:09.087Z,18.90
2022-08-05T07:40:26.527Z,18.73
2022-08-05T07:42:31.800Z,18.75
2022-08-05T07:45:04.097Z,18.93
2022-08-05T07:47:42.324Z,18.98
2022-08-05T07:50:09.646Z,19.22
2022-08-05T07:52:46.762Z,19.14
2022-08-05T07:55:16.021Z,19.26
2022-08-05T07:58:03.255Z,19.29
2022-08-05T08:00:30.918Z,19.57
2022-08-05T08:03:14.173Z,19.53
2022-08-05T08:05:49.400Z,19.67
2022-08-05T08:08:17.119Z,19.71
2022-08-05T08:10:48.903Z,19.74
2022-08-05T08:13:22.037Z,19.91
2022-08-05T08:16:35.424Z,20.06
2022-08-05T08:18:42.464Z,20.10
2022-08-05T08:21:17.604Z,20.37
2022-08-05T08:24:02.310Z,20.40
2022-08-05T08:26:31.248Z,20.77
2022-08-05T08:29:21.883Z,20.88
2022-08-05T08:31:48.326Z,20.84
2022-08-05T08:34:15.442Z,20.93
2022-08-05T08:36:47.594Z,20.89
2022-08-05T08:39:19.598Z,21.07
2022-08-05T08:41:50.624Z,21.02
2022-08-05T08:45:23.884Z,21.18
2022-08-05T08:47:47.061Z,21.43
2022-08-05T08:50:08.873Z,21.40
2022-08-05T08:52:51.759Z,21.37
2022-08-05T08:56:02.848Z,21.53
2022-08-05T08:58:08.974Z,21.67
2022-08-05T09:00:36.518Z,21.65
2022-08-05T09:03:06.833Z,21.71
2022-08-05T09:05:38.913Z,21.53
2022-08-05T09:08:20.233Z,21.77
2022-08-05T09:10:53.393Z,21.77
2022-08-05T09:13:20.159Z,22.02
2022-08-05T09:15:51.172Z,22.19
2022-08-05T09:18:17.841Z,22.42
2022-08-05T09:20:45.873Z,22.64
2022-08-05T09:23:19.028Z,22.92
2022-08-05T09:26:02.156Z,23.12
2022-08-05T09:28:33.461Z,23.09
2022-08-05T09:31:23.529Z,23.17
2022-08-05T09:33:59.671Z,23.11
2022-08-05T09:36:54.930Z,23.28
2022-08-05T09:39:27.658Z,23.34
2022-08-05T09:42:08.792Z,23.65
2022-08-05T09:44:42.561Z,23.76
2022-08-05T09:47:16.500Z,23.87
2022-08-05T09:50:02.429Z,24.00
2022-08-05T09:52:32.703Z,24.27
2022-08-05T09:55:55.599Z,24.59
2022-08-05T09:57:48.464Z,24.92
2022-08-05T10:00:15.209Z,25.02
2022-08-05T10:02:50.188Z,25.00
2022-08-05T10:05:22.635Z,25.28
2022-08-05T10:08:35.379Z,25.24
2022-08-05T10:10:45.704Z,25.58
2022-08-05T10:13:47.222Z,25.91
2022-08-05T10:16:41.852Z,26.02
2022-08-05T10:19:23.616Z,26.18
2022-08-05T10:22:09.061Z,26.21
2022-08-05T10:24:42.387Z,26.24
2022-08-05T10:27:15.031Z,26.16
2022-08-05T10:30:06.638Z,26.13
2022-08-05T10:33:01.293Z,26.23
2022-08-05T10:35:19.217Z,26.18
2022-08-05T10:37:47.451Z,26.18
2022-08-05T10:40:34.678Z,26.40
2022-08-05T10:43:46.967Z,26.86
2022-08-05T10:46:18.411Z,27.01
2022-08-05T10:49:01.538Z,27.10
2022-08-05T10:51:57.661Z,26.88
2022-08-05T10:54:56.409Z,27.02
2022-08-05T10:57:29.382Z,27.19
2022-08-05T11:00:13.383Z,27.19
2022-08-05T11:03:23.482Z,26.65
2022-08-05T11:06:15.283Z,26.21
2022-08-05T11:09:18.585Z,26.38
2022-08-05T11:11:53.964Z,26.19
2022-08-05T11:14:57.438Z,25.83
2022-08-05T11:17:58.676Z,25.47
2022-08-05T11:20:37.307Z,25.59
2022-08-05T11:24:02.795Z,25.98
2022-08-05T11:26:28.343Z,26.27
2022-08-05T11:29:06.602Z,26.50
2022-08-05T11:31:58.660Z,26.69
2022-08-05T11:34:50.737Z,27.11
2022-08-05T11:38:29.936Z,27.59
2022-08-05T11:41:36.879Z,27.82
2022-08-05T11:44:05.755Z,27.81
2022-08-05T11:47:09.218Z,27.89
2022-08-05T11:49:26.194Z,28.05
2022-08-05T11:51:53.528Z,28.26
2022-08-05T11:54:32.898Z,27.98
2022-08-05T11:57:08.447Z,28.12
2022-08-05T11:59:50.633Z,28.27
2022-08-05T12:02:30.583Z,28.29
2022-08-05T12:05:00.412Z,28.34
2022-08-05T12:08:04.414Z,28.37
2022-08-05T12:10:38.388Z,28.51
2022-08-05T12:13:18.697Z,28.42
2022-08-05T12:16:14.974Z,28.37
2022-08-05T12:18:49.384Z,28.33
2022-08-05T12:21:24.036Z,28.45
2022-08-05T12:23:53.671Z,28.71
2022-08-05T12:26:20.557Z,28.37
2022-08-05T12:28:50.703Z,27.93
2022-08-05T12:31:28.056Z,27.69
2022-08-05T12:34:06.235Z,27.54
2022-08-05T12:36:33.534Z,27.42
2022-08-05T12:39:03.031Z,27.25
2022-08-05T12:41:44.001Z,27.19
2022-08-05T12:44:14.425Z,27.18
2022-08-05T12:46:53.451Z,27.33
2022-08-05T12:49:25.597Z,27.41
2022-08-05T12:52:12.897Z,26.82
2022-08-05T12:54:49.682Z,26.21
2022-08-05T12:57:17.941Z,25.95
2022-08-05T13:01:57.003Z,26.09
2022-08-05T13:02:36.207Z,26.50
2022-08-05T13:05:06.259Z,26.86
2022-08-05T13:08:00.204Z,26.97
2022-08-05T13:10:20.455Z,27.10
2022-08-05T13:12:51.284Z,27.22
2022-08-05T13:15:41.310Z,26.99
2022-08-05T13:18:19.682Z,26.83
2022-08-05T13:20:49.742Z,26.93
2022-08-05T13:23:22.104Z,26.84
2022-08-05T13:25:51.945Z,26.58
2022-08-05T13:28:26.974Z,26.27
2022-08-05T13:30:53.748Z,25.94
2022-08-05T13:34:21.361Z,25.72
2022-08-05T13:36:09.309Z,25.62
2022-08-05T13:38:41.950Z,25.69
2022-08-05T13:41:12.442Z,25.83
2022-08-05T13:43:43.962Z,25.76
2022-08-05T13:46:13.351Z,26.30
2022-08-05T13:48:57.575Z,26.32
2022-08-05T13:51:29.535Z,26.72
2022-08-05T13:54:03.577Z,26.83
2022-08-05T13:56:45.536Z,27.19
2022-08-05T13:59:21.051Z,27.46
2022-08-05T14:01:57.528Z,27.07
2022-08-05T14:04:51.394Z,26.52
2022-08-05T14:08:00.111Z,26.37
2022-08-05T14:10:28.129Z,26.35
2022-08-05T14:12:57.052Z,26.25
2022-08-05T14:16:07.091Z,25.75
2022-08-05T14:18:17.727Z,25.39
2022-08-05T14:20:47.695Z,25.15
2022-08-05T14:23:25.177Z,24.98
2022-08-05T14:25:54.558Z,25.04
2022-08-05T14:28:26.206Z,24.88
2022-08-05T14:30:54.773Z,24.60
2022-08-05T14:33:23.057Z,24.58
2022-08-05T14:35:51.908Z,24.65
2022-08-05T14:38:31.735Z,24.65
2022-08-05T14:41:01.515Z,24.88
2022-08-05T14:43:59.191Z,25.47
2022-08-05T14:46:18.923Z,26.05
2022-08-05T14:48:49.851Z,26.33
2022-08-05T14:51:17.703Z,26.97
2022-08-05T14:53:45.361Z,27.23
2022-08-05T14:56:31.848Z,27.80
2022-08-05T14:58:58.350Z,27.90
2022-08-05T15:01:49.141Z,28.25
2022-08-05T15:04:11.878Z,28.50
2022-08-05T15:06:39.119Z,28.89
2022-08-05T15:09:07.501Z,28.40
2022-08-05T15:11:51.771Z,27.77
2022-08-05T15:14:34.979Z,27.17
2022-08-05T15:17:44.836Z,26.60
2022-08-05T15:19:55.464Z,26.61
2022-08-05T15:22:22.213Z,26.82
2022-08-05T15:24:54.302Z,27.18
2022-08-05T15:27:20.901Z,27.27
2022-08-05T15:29:47.528Z,27.36
2022-08-05T15:32:16.487Z,27.66
2022-08-05T15:34:43.163Z,27.50
2022-08-05T15:37:14.749Z,27.47
2022-08-05T15:40:59.776Z,27.70
2022-08-05T15:42:58.272Z,27.44
2022-08-05T15:45:16.956Z,27.08
2022-08-05T15:47:45.752Z,26.85
2022-08-05T15:50:16.002Z,26.44
2022-08-05T15:52:53.440Z,26.16
2022-08-05T15:55:24.837Z,25.94
2022-08-05T15:58:16.831Z,25.69
2022-08-05T16:01:04.177Z,25.45
2022-08-05T16:03:30.670Z,25.17
2022-08-05T16:06:00.628Z,25.15
2022-08-05T16:08:30.805Z,24.91
2022-08-05T16:10:58.612Z,24.73
2022-08-05T16:13:31.934Z,24.50
2022-08-05T16:16:05.887Z,24.55
2022-08-05T16:18:35.209Z,24.52
2022-08-05T16:21:18.703Z,25.05
2022-08-05T16:23:54.328Z,25.20
2022-08-05T16:26:26.564Z,25.12
2022-08-05T16:28:55.432Z,24.94
2022-08-05T16:31:22.118Z,24.71
2022-08-05T16:33:49.224Z,24.69
2022-08-05T16:36:20.223Z,24.90
2022-08-05T16:38:54.962Z,25.09
2022-08-05T16:42:15.369Z,25.06
2022-08-05T16:44:17.234Z,24.68
2022-08-05T16:46:55.660Z,24.54
2022-08-05T16:49:23.428Z,24.39
2022-08-05T16:51:51.021Z,24.52
2022-08-05T16:54:23.993Z,24.45
2022-08-05T16:56:54.069Z,24.30
2022-08-05T16:59:20.578Z,24.14
2022-08-05T17:01:54.391Z,24.11
2022-08-05T17:04:27.439Z,24.18
2022-08-05T17:06:59.949Z,24.11
2022-08-05T17:09:38.945Z,23.99
2022-08-05T17:12:17.339Z,23.98
2022-08-05T17:14:49.745Z,23.90
2022-08-05T17:17:16.446Z,23.67
2022-08-05T17:19:46.462Z,23.68
2022-08-05T17:22:24.766Z,23.63
2022-08-05T17:24:58.207Z,23.72
2022-08-05T17:27:25.945Z,23.63
2022-08-05T17:29:59.596Z,23.38
2022-08-05T17:32:27.601Z,23.50
2022-08-05T17:34:54.449Z,23.42
2022-08-05T17:37:40.937Z,23.33
2022-08-05T17:40:12.353Z,23.14
2022-08-05T17:42:41.724Z,23.18
2022-08-05T17:45:20.626Z,23.13
2022-08-05T17:47:54.075Z,23.02
2022-08-05T17:50:28.045Z,22.95
2022-08-05T17:52:58.966Z,22.88
2022-08-05T17:55:34.095Z,22.67
2022-08-05T17:58:02.038Z,22.60
2022-08-05T18:00:30.139Z,22.53
2022-08-05T18:02:57.218Z,22.61
2022-08-05T18:05:27.884Z,22.53
2022-08-05T18:07:54.938Z,22.61
2022-08-05T18:10:23.728Z,22.58
2022-08-05T18:12:50.406Z,22.58
2022-08-05T18:15:17.393Z,22.59
2022-08-05T18:17:58.926Z,22.58
2022-08-05T18:20:29.190Z,22.38
2022-08-05T18:23:08.720Z,22.62
2022-08-05T18:25:38.925Z,22.61
2022-08-05T18:28:06.584Z,22.50
2022-08-05T18:30:33.974Z,22.27
2022-08-05T18:33:01.482Z,22.42
2022-08-05T18:35:59.640Z,22.28
2022-08-05T18:38:19.463Z,22.00
2022-08-05T18:41:59.662Z,21.93
2022-08-05T18:43:43.123Z,21.83
2022-08-05T18:46:20.194Z,22.00
2022-08-05T18:48:51.859Z,21.88
2022-08-05T18:52:03.888Z,21.84
2022-08-05T18:54:30.953Z,21.72
2022-08-05T18:57:00.850Z,21.62
2022-08-05T18:59:43.440Z,21.64
2022-08-05T19:02:28.311Z,21.63
2022-08-05T19:05:02.355Z,21.55
2022-08-05T19:07:47.940Z,21.51
2022-08-05T19:10:18.593Z,21.45
2022-08-05T19:12:53.370Z,21.37
2022-08-05T19:15:56.675Z,21.26
2022-08-05T19:18:09.352Z,21.16
2022-08-05T19:20:41.352Z,21.13
2022-08-05T19:24:05.881Z,20.94
2022-08-05T19:26:01.891Z,21.01
2022-08-05T19:28:30.671Z,20.94
2022-08-05T19:30:57.482Z,20.86
2022-08-05T19:33:35.023Z,20.68
2022-08-05T19:36:02.754Z,20.63
2022-08-05T19:38:32.601Z,20.48
2022-08-05T19:40:59.162Z,20.52
2022-08-05T19:44:04.102Z,20.43
2022-08-05T19:46:16.925Z,20.36
2022-08-05T19:48:56.376Z,20.28
2022-08-05T19:52:04.663Z,20.20
2022-08-05T19:54:21.822Z,20.11
2022-08-05T19:56:55.197Z,19.87
2022-08-05T20:00:01.175Z,19.88
2022-08-05T20:02:08.414Z,19.94
2022-08-05T20:04:35.299Z,19.88
2022-08-05T20:07:02.832Z,19.74
2022-08-05T20:09:29.458Z,19.75
2022-08-05T20:12:16.041Z,19.68
2022-08-05T20:14:45.514Z,19.61
2022-08-05T20:17:16.321Z,19.46
2022-08-05T20:19:42.990Z,19.53
2022-08-05T20:22:09.833Z,19.24
2022-08-05T20:24:36.664Z,19.18
2022-08-05T20:27:11.408Z,19.19
2022-08-05T20:29:38.442Z,19.25
2022-08-05T20:32:06.635Z,19.28
2022-08-05T20:34:33.262Z,19.21
2022-08-05T20:37:00.799Z,19.07
2022-08-05T20:39:35.460Z,19.15
2022-08-05T20:42:03.696Z,19.13
2022-08-05T20:44:31.099Z,19.09
2022-08-05T20:46:59.812Z,19.02
2022-08-05T20:49:27.288Z,19.01
2022-08-05T20:51:55.185Z,18.97
2022-08-05T20:54:24.629Z,18.88
2022-08-05T20:56:52.459Z,18.79
2022-08-05T20:59:26.397Z,18.71
2022-08-05T21:01:57.401Z,18.68
2022-08-05T21:04:26.752Z,18.71
2022-08-05T21:06:53.902Z,18.62
2022-08-05T21:09:20.590Z,18.52
2022-08-05T21:12:08.852Z,18.53
2022-08-05T21:14:34.840Z,18.53
2022-08-05T21:17:05.127Z,18.36
2022-08-05T21:19:47.375Z,18.20
2022-08-05T21:22:18.594Z,18.30
2022-08-05T21:24:51.814Z,18.36
2022-08-05T21:27:20.561Z,18.24
2022-08-05T21:29:52.507Z,18.26
2022-08-05T21:32:20.829Z,18.03
2022-08-05T21:35:08.461Z,18.07
2022-08-05T21:37:41.257Z,18.13
2022-08-05T21:40:13.672Z,18.08
2022-08-05T21:42:44.475Z,17.97
2022-08-05T21:45:12.498Z,17.89
2022-08-05T21:47:56.745Z,17.75
2022-08-05T21:50:26.058Z,17.86
2022-08-05T21:52:53.513Z,17.68
2022-08-05T21:56:01.294Z,17.75
2022-08-05T21:58:07.298Z,17.84
2022-08-05T22:00:38.069Z,17.82
2022-08-05T22:03:07.095Z,17.66
2022-08-05T22:05:49.158Z,17.69
2022-08-05T22:08:22.284Z,17.58
2022-08-05T22:10:51.667Z,17.63
2022-08-05T22:14:34.176Z,17.60
2022-08-05T22:16:20.460Z,17.49
2022-08-05T22:18:53.913Z,17.45
2022-08-05T22:21:25.189Z,17.48
2022-08-05T22:24:39.299Z,17.37
2022-08-05T22:27:16.613Z,17.39
2022-08-05T22:29:44.050Z,17.33
2022-08-05T22:32:12.677Z,17.24
2022-08-05T22:34:44.309Z,17.24
2022-08-05T22:37:12.709Z,17.11
2022-08-05T22:39:39.488Z,17.03
2022-08-05T22:42:10.633Z,16.93
2022-08-05T22:44:39.642Z,16.94
2022-08-05T22:47:06.906Z,17.06
2022-08-05T22:50:23.056Z,16.98
2022-08-05T22:52:32.293Z,17.00
2022-08-05T22:55:01.445Z,16.98
2022-08-05T22:57:34.361Z,16.87
2022-08-05T23:00:07.989Z,16.88
2022-08-05T23:02:46.411Z,16.71
2022-08-05T23:05:14.567Z,16.80
2022-08-05T23:07:45.045Z,16.71
2022-08-05T23:10:12.957Z,16.69
2022-08-05T23:12:39.871Z,16.64
2022-08-05T23:15:10.199Z,16.48
2022-08-05T23:18:02.396Z,16.50
2022-08-05T23:20:25.223Z,16.47
2022-08-05T23:22:56.175Z,16.46
2022-08-05T23:25:51.329Z,16.50
2022-08-05T23:28:10.883Z,16.47
2022-08-05T23:30:40.489Z,16.33
2022-08-05T23:33:21.819Z,16.37
2022-08-05T23:35:55.919Z,16.24
2022-08-05T23:38:23.513Z,16.38
2022-08-05T23:40:52.731Z,16.32
2022-08-05T23:43:25.537Z,16.18
2022-08-05T23:46:19.869Z,16.27
2022-08-05T23:48:59.627Z,16.10
2022-08-05T23:51:54.911Z,16.12
2022-08-05T23:54:30.165Z,16.15
2022-08-05T23:57:03.721Z,15.99
2022-08-05T23:59:37.633Z,16.02
